createdAt,value
2022-07-26T00:00:31.829Z,74116.84
2022-07-26T00:02:58.872Z,74124.53
2022-07-26T00:05:25.656Z,74128.38
2022-07-26T00:08:10.602Z,74132.25
2022-07-26T00:10:47.275Z,74124.53
2022-07-26T00:13:14.421Z,74132.25
2022-07-26T00:15:41.319Z,74139.94
2022-07-26T00:18:12.015Z,74136.09
2022-07-26T00:20:40.284Z,74138.00
2022-07-26T00:23:08.313Z,74155.34
2022-07-26T00:25:35.333Z,74157.28
2022-07-26T00:28:02.321Z,74155.34
2022-07-26T00:30:29.133Z,74153.41
2022-07-26T00:32:56.499Z,74151.50
2022-07-26T00:35:23.526Z,74163.06
2022-07-26T00:37:50.802Z,74163.06
2022-07-26T00:40:18.521Z,74166.91
2022-07-26T00:42:45.709Z,74176.53
2022-07-26T00:45:14.637Z,74180.38
2022-07-26T00:47:41.545Z,74174.59
2022-07-26T00:50:11.928Z,74168.81
2022-07-26T00:52:38.719Z,74157.28
2022-07-26T00:55:07.664Z,74143.78
2022-07-26T00:57:35.862Z,74132.25
2022-07-26T01:00:10.119Z,74120.69
2022-07-26T01:02:36.947Z,74109.13
2022-07-26T01:05:04.068Z,74097.59
2022-07-26T01:07:30.933Z,74089.88
2022-07-26T01:09:57.703Z,74086.03
2022-07-26T01:12:24.541Z,74087.94
2022-07-26T01:14:51.540Z,74091.81
2022-07-26T01:17:18.407Z,74089.88
2022-07-26T01:19:45.193Z,74086.03
2022-07-26T01:22:14.670Z,74082.16
2022-07-26T01:24:41.991Z,74086.03
2022-07-26T01:27:08.789Z,74128.38
2022-07-26T01:29:36.309Z,74149.56
2022-07-26T01:32:05.124Z,74163.06
2022-07-26T01:34:32.751Z,74157.28
2022-07-26T01:36:59.740Z,74164.97
2022-07-26T01:39:26.846Z,74155.34
2022-07-26T01:41:54.663Z,74151.50
2022-07-26T01:44:22.968Z,74139.94
2022-07-26T01:46:50.105Z,74116.84
2022-07-26T01:49:16.993Z,74084.09
2022-07-26T01:51:43.849Z,74051.38
2022-07-26T01:54:11.888Z,74047.50
2022-07-26T01:56:39.304Z,74030.19
2022-07-26T01:59:06.102Z,74024.41
2022-07-26T02:01:37.856Z,74016.69
2022-07-26T02:04:08.453Z,74030.19
2022-07-26T02:06:35.715Z,74039.81
2022-07-26T02:09:05.910Z,74041.72
2022-07-26T02:11:34.439Z,74061.00
2022-07-26T02:14:02.396Z,74062.91
2022-07-26T02:16:29.173Z,74074.47
2022-07-26T02:18:57.004Z,74074.47
2022-07-26T02:21:23.751Z,74082.16
2022-07-26T02:23:50.418Z,74103.34
2022-07-26T02:26:17.280Z,74091.81
2022-07-26T02:28:43.944Z,74097.59
2022-07-26T02:31:11.811Z,74107.22
2022-07-26T02:33:42.452Z,74120.69
2022-07-26T02:36:09.160Z,74138.00
2022-07-26T02:38:35.838Z,74143.78
2022-07-26T02:41:02.679Z,74155.34
2022-07-26T02:43:30.718Z,74159.19
2022-07-26T02:46:01.850Z,74170.75
2022-07-26T02:48:32.753Z,74182.31
2022-07-26T02:50:59.750Z,74186.16
2022-07-26T02:53:26.589Z,74213.13
2022-07-26T02:55:53.285Z,74251.63
2022-07-26T02:58:25.165Z,74286.28
2022-07-26T03:00:52.157Z,74324.81
2022-07-26T03:03:19.235Z,74346.00
2022-07-26T03:05:46.024Z,74372.94
2022-07-26T03:08:12.749Z,74388.38
2022-07-26T03:10:40.015Z,74405.69
2022-07-26T03:13:07.189Z,74409.53
2022-07-26T03:15:33.955Z,74436.50
2022-07-26T03:18:00.859Z,74446.13
2022-07-26T03:20:27.642Z,74457.69
2022-07-26T03:22:54.400Z,74478.88
2022-07-26T03:25:21.270Z,74502.00
2022-07-26T03:27:47.946Z,74509.69
2022-07-26T03:30:15.118Z,74527.03
2022-07-26T03:32:42.005Z,74534.72
2022-07-26T03:35:09.224Z,74550.13
2022-07-26T03:37:44.947Z,74540.50
2022-07-26T03:40:16.415Z,74536.66
2022-07-26T03:42:44.744Z,74538.56
2022-07-26T03:45:12.611Z,74540.50
2022-07-26T03:47:39.419Z,74540.50
2022-07-26T03:50:07.559Z,74540.50
2022-07-26T03:52:34.687Z,74536.66
2022-07-26T03:55:01.426Z,74532.81
2022-07-26T03:57:28.417Z,74515.47
2022-07-26T03:59:55.998Z,74517.38
2022-07-26T04:02:22.890Z,74505.84
2022-07-26T04:04:49.776Z,74505.84
2022-07-26T04:07:16.515Z,74505.84
2022-07-26T04:09:43.265Z,74498.13
2022-07-26T04:12:09.999Z,74486.56
2022-07-26T04:14:36.870Z,74471.16
2022-07-26T04:17:03.710Z,74467.31
2022-07-26T04:19:30.629Z,74475.03
2022-07-26T04:21:57.388Z,74486.56
2022-07-26T04:24:25.542Z,74517.38
2022-07-26T04:26:52.583Z,74538.56
2022-07-26T04:29:19.355Z,74559.75
2022-07-26T04:31:46.070Z,74580.94
2022-07-26T04:34:12.920Z,74577.09
2022-07-26T04:36:40.061Z,74579.03
2022-07-26T04:39:06.818Z,74588.66
2022-07-26T04:41:36.200Z,74590.56
2022-07-26T04:44:02.985Z,74592.50
2022-07-26T04:46:30.036Z,74590.56
2022-07-26T04:48:56.943Z,74594.44
2022-07-26T04:51:23.770Z,74590.56
2022-07-26T04:53:50.655Z,74594.44
2022-07-26T04:56:17.405Z,74598.28
2022-07-26T04:58:44.151Z,74602.13
2022-07-26T05:01:11.415Z,74617.53
2022-07-26T05:03:39.291Z,74629.09
2022-07-26T05:06:06.382Z,74629.09
2022-07-26T05:08:33.145Z,74632.94
2022-07-26T05:10:59.957Z,74636.81
2022-07-26T05:13:30.467Z,74652.22
2022-07-26T05:15:59.772Z,74656.06
2022-07-26T05:18:27.496Z,74657.97
2022-07-26T05:20:56.155Z,74652.22
2022-07-26T05:23:23.022Z,74652.22
2022-07-26T05:25:49.929Z,74659.91
2022-07-26T05:28:16.707Z,74652.22
2022-07-26T05:30:43.687Z,74652.22
2022-07-26T05:33:10.483Z,74661.84
2022-07-26T05:35:43.797Z,74661.84
2022-07-26T05:38:10.776Z,74673.41
2022-07-26T05:40:37.555Z,74686.88
2022-07-26T05:43:04.826Z,74686.88
2022-07-26T05:45:31.630Z,74690.72
2022-07-26T05:47:58.499Z,74706.13
2022-07-26T05:50:25.286Z,74713.84
2022-07-26T05:52:52.175Z,74717.69
2022-07-26T05:55:19.013Z,74717.69
2022-07-26T05:57:49.866Z,74723.47
2022-07-26T06:00:17.238Z,74731.16
2022-07-26T06:02:44.051Z,74746.56
2022-07-26T06:05:10.983Z,74756.22
2022-07-26T06:07:38.382Z,74754.28
2022-07-26T06:10:05.730Z,74760.06
2022-07-26T06:12:32.498Z,74775.47
2022-07-26T06:14:59.342Z,74779.31
2022-07-26T06:17:30.237Z,74794.72
2022-07-26T06:19:58.161Z,74798.59
2022-07-26T06:22:25.031Z,74790.88
2022-07-26T06:24:51.848Z,74804.34
2022-07-26T06:27:18.858Z,74790.88
2022-07-26T06:29:48.443Z,74790.88
2022-07-26T06:32:15.499Z,74790.88
2022-07-26T06:34:42.303Z,74802.44
2022-07-26T06:37:09.188Z,74787.03
2022-07-26T06:39:35.904Z,74783.16
2022-07-26T06:42:02.763Z,74781.25
2022-07-26T06:44:29.554Z,74769.69
2022-07-26T06:46:56.260Z,74760.06
2022-07-26T06:49:23.853Z,74756.22
2022-07-26T06:51:50.680Z,74738.88
2022-07-26T06:54:17.463Z,74721.53
2022-07-26T06:56:44.623Z,74711.91
2022-07-26T06:59:11.479Z,74686.88
2022-07-26T07:01:57.674Z,74686.88
2022-07-26T07:04:25.098Z,74679.16
2022-07-26T07:06:51.868Z,74659.91
2022-07-26T07:09:19.516Z,74644.50
2022-07-26T07:11:49.264Z,74623.31
2022-07-26T07:14:19.021Z,74592.50
2022-07-26T07:16:45.786Z,74582.88
2022-07-26T07:19:12.718Z,74582.88
2022-07-26T07:21:39.606Z,74528.94
2022-07-26T07:24:07.788Z,74430.72
2022-07-26T07:26:34.962Z,74386.44
2022-07-26T07:29:04.142Z,74294.00
2022-07-26T07:31:48.908Z,74218.91
2022-07-26T07:34:19.697Z,74170.75
2022-07-26T07:36:47.120Z,74322.88
2022-07-26T07:39:17.633Z,74305.56
2022-07-26T07:41:46.478Z,74367.19
2022-07-26T07:44:16.013Z,74394.13
2022-07-26T07:46:44.913Z,74476.94
2022-07-26T07:49:12.295Z,74496.22
2022-07-26T07:51:39.495Z,74492.34
2022-07-26T07:54:07.462Z,74463.47
2022-07-26T07:56:35.161Z,74475.03
2022-07-26T07:59:01.957Z,74513.53
2022-07-26T08:01:39.761Z,74490.44
2022-07-26T08:04:08.238Z,74480.81
2022-07-26T08:06:35.377Z,74475.03
2022-07-26T08:09:04.511Z,74428.81
2022-07-26T08:11:34.204Z,74432.66
2022-07-26T08:14:01.545Z,74455.75
2022-07-26T08:16:28.555Z,74480.81
2022-07-26T08:18:57.766Z,74428.81
2022-07-26T08:21:28.131Z,74442.28
2022-07-26T08:23:55.944Z,74455.75
2022-07-26T08:26:22.624Z,74511.63
2022-07-26T08:28:58.301Z,74517.38
2022-07-26T08:31:27.748Z,74540.50
2022-07-26T08:33:56.145Z,74559.75
2022-07-26T08:36:23.121Z,74528.94
2022-07-26T08:38:49.973Z,74532.81
2022-07-26T08:41:20.572Z,74525.09
2022-07-26T08:43:53.169Z,74584.81
2022-07-26T08:46:27.070Z,74598.28
2022-07-26T08:48:57.110Z,74575.16
2022-07-26T08:51:25.685Z,74609.84
2022-07-26T08:54:05.741Z,74627.16
2022-07-26T08:56:41.917Z,74627.16
2022-07-26T08:59:19.633Z,74640.66
2022-07-26T09:01:59.737Z,74671.47
2022-07-26T09:04:32.787Z,74679.16
2022-07-26T09:07:19.975Z,74671.47
2022-07-26T09:10:00.891Z,74675.31
2022-07-26T09:12:29.403Z,74673.41
2022-07-26T09:14:57.257Z,74661.84
2022-07-26T09:17:25.556Z,74659.91
2022-07-26T09:20:09.596Z,74671.47
2022-07-26T09:22:38.289Z,74683.03
2022-07-26T09:25:20.857Z,74692.66
2022-07-26T09:27:47.810Z,74681.09
2022-07-26T09:30:16.764Z,74679.16
2022-07-26T09:32:59.140Z,74650.28
2022-07-26T09:38:15.814Z,74644.50
2022-07-26T09:40:43.034Z,74636.81
2022-07-26T09:43:23.672Z,74604.06
2022-07-26T09:46:05.050Z,74590.56
2022-07-26T09:48:52.341Z,74563.63
2022-07-26T09:51:35.352Z,74567.47
2022-07-26T09:54:02.400Z,74530.88
2022-07-26T09:56:48.979Z,74532.81
2022-07-26T09:59:19.418Z,74513.53
2022-07-26T10:01:47.544Z,74486.56
2022-07-26T10:04:14.921Z,74403.78
2022-07-26T10:06:42.701Z,74415.31
2022-07-26T10:09:10.206Z,74376.81
2022-07-26T10:11:59.854Z,74295.94
2022-07-26T10:14:44.744Z,74294.00
2022-07-26T10:17:31.479Z,74290.16
2022-07-26T10:20:03.841Z,74280.53
2022-07-26T10:22:41.832Z,74240.06
2022-07-26T10:25:17.701Z,74232.38
2022-07-26T10:27:46.901Z,74201.56
2022-07-26T10:30:19.656Z,74176.53
2022-07-26T10:32:59.582Z,74247.78
2022-07-26T10:35:32.887Z,74274.75
2022-07-26T10:38:02.613Z,74226.59
2022-07-26T10:40:32.168Z,74211.19
2022-07-26T10:43:39.098Z,74228.53
2022-07-26T10:46:18.123Z,74193.88
2022-07-26T10:49:06.563Z,74201.56
2022-07-26T10:51:39.013Z,74232.38
2022-07-26T10:54:17.613Z,74286.28
2022-07-26T10:56:44.298Z,74309.41
2022-07-26T10:59:11.207Z,74301.69
2022-07-26T11:01:42.859Z,74236.22
2022-07-26T11:04:23.198Z,74232.38
2022-07-26T11:06:50.064Z,74182.31
2022-07-26T11:09:20.914Z,74178.47
2022-07-26T11:11:48.740Z,74170.75
2022-07-26T11:14:19.332Z,74222.75
2022-07-26T11:16:50.827Z,74205.41
2022-07-26T11:19:25.967Z,74216.97
2022-07-26T11:21:55.563Z,74182.31
2022-07-26T11:24:22.601Z,74182.31
2022-07-26T11:26:50.423Z,74164.97
2022-07-26T11:29:38.112Z,74147.66
2022-07-26T11:32:17.974Z,74086.03
2022-07-26T11:34:45.600Z,74055.22
2022-07-26T11:37:12.924Z,74007.06
2022-07-26T11:39:40.563Z,74016.69
2022-07-26T11:42:13.121Z,74003.22
2022-07-26T11:44:47.058Z,73985.91
2022-07-26T11:47:16.703Z,73945.47
2022-07-26T11:49:52.759Z,73876.13
2022-07-26T11:52:31.742Z,73881.91
2022-07-26T11:54:59.136Z,73824.16
2022-07-26T11:57:31.019Z,73868.44
2022-07-26T11:59:59.660Z,73804.91
2022-07-26T12:02:26.908Z,73851.09
2022-07-26T12:05:17.203Z,73920.44
2022-07-26T12:07:56.778Z,73951.22
2022-07-26T12:10:24.354Z,73989.75
2022-07-26T12:13:12.434Z,73982.03
2022-07-26T12:15:51.883Z,74045.59
2022-07-26T12:18:29.671Z,74089.88
2022-07-26T12:21:08.897Z,74220.81
2022-07-26T12:23:49.892Z,74430.72
2022-07-26T12:26:20.968Z,74509.69
2022-07-26T12:28:47.800Z,74509.69
2022-07-26T12:31:26.266Z,74563.63
2022-07-26T12:33:53.189Z,74621.38
2022-07-26T12:36:28.351Z,74632.94
2022-07-26T12:38:57.771Z,74644.50
2022-07-26T12:41:34.883Z,74654.13
2022-07-26T12:44:03.453Z,74638.72
2022-07-26T12:46:33.896Z,74625.25
2022-07-26T12:49:01.238Z,74625.25
2022-07-26T12:51:28.466Z,74632.94
2022-07-26T12:53:55.202Z,74667.63
2022-07-26T12:56:21.879Z,74671.47
2022-07-26T12:58:48.704Z,74675.31
2022-07-26T13:01:15.725Z,74663.75
2022-07-26T13:03:42.433Z,74663.75
2022-07-26T13:06:09.172Z,74659.91
2022-07-26T13:08:35.982Z,74665.69
2022-07-26T13:11:02.732Z,74663.75
2022-07-26T13:13:29.910Z,74661.84
2022-07-26T13:15:56.628Z,74659.91
2022-07-26T13:18:23.414Z,74667.63
2022-07-26T13:20:50.174Z,74679.16
2022-07-26T13:23:21.763Z,74673.41
2022-07-26T13:25:49.798Z,74657.97
2022-07-26T13:28:17.435Z,74667.63
2022-07-26T13:30:45.228Z,74671.47
2022-07-26T13:33:12.317Z,74663.75
2022-07-26T13:35:41.036Z,74659.91
2022-07-26T13:38:08.445Z,74648.34
2022-07-26T13:40:36.040Z,74636.81
2022-07-26T13:43:03.584Z,74638.72
2022-07-26T13:45:30.390Z,74636.81
2022-07-26T13:47:59.239Z,74627.16
2022-07-26T13:50:27.699Z,74621.38
2022-07-26T13:52:56.737Z,74611.75
2022-07-26T13:55:25.025Z,74598.28
2022-07-26T13:57:56.734Z,74582.88
2022-07-26T14:00:25.345Z,74571.31
2022-07-26T14:02:52.245Z,74563.63
2022-07-26T14:05:20.353Z,74563.63
2022-07-26T14:07:47.062Z,74575.16
2022-07-26T14:10:13.816Z,74590.56
2022-07-26T14:12:41.165Z,74588.66
2022-07-26T14:15:15.433Z,74617.53
2022-07-26T14:17:51.013Z,74590.56
2022-07-26T14:20:18.283Z,74563.63
2022-07-26T14:22:45.445Z,74548.22
2022-07-26T14:25:12.583Z,74544.34
2022-07-26T14:27:39.453Z,74552.06
2022-07-26T14:30:06.845Z,74540.50
2022-07-26T14:32:33.608Z,74530.88
2022-07-26T14:35:00.365Z,74521.25
2022-07-26T14:37:42.508Z,74513.53
2022-07-26T14:40:14.175Z,74563.63
2022-07-26T14:42:42.277Z,74557.84
2022-07-26T14:45:10.082Z,74575.16
2022-07-26T14:47:37.079Z,74586.72
2022-07-26T14:50:07.096Z,74582.88
2022-07-26T14:52:36.694Z,74598.28
2022-07-26T14:55:03.900Z,74615.63
2022-07-26T14:57:30.683Z,74592.50
2022-07-26T15:00:00.421Z,74575.16
2022-07-26T15:02:27.519Z,74575.16
2022-07-26T15:04:54.417Z,74580.94
2022-07-26T15:07:21.266Z,74567.47
2022-07-26T15:09:47.990Z,74561.69
2022-07-26T15:12:14.969Z,74579.03
2022-07-26T15:14:45.511Z,74594.44
2022-07-26T15:17:13.527Z,74605.97
2022-07-26T15:19:41.119Z,74602.13
2022-07-26T15:22:09.473Z,74592.50
2022-07-26T15:24:39.724Z,74559.75
2022-07-26T15:27:07.655Z,74544.34
2022-07-26T15:29:36.016Z,74553.97
2022-07-26T15:32:04.046Z,74534.72
2022-07-26T15:34:31.471Z,74525.09
2022-07-26T15:36:58.368Z,74563.63
2022-07-26T15:39:25.097Z,74561.69
2022-07-26T15:41:52.243Z,74552.06
2022-07-26T15:44:23.752Z,74553.97
2022-07-26T15:46:52.582Z,74571.31
2022-07-26T15:49:19.716Z,74555.91
2022-07-26T15:51:46.854Z,74517.38
2022-07-26T15:54:15.415Z,74498.13
2022-07-26T15:56:43.382Z,74502.00
2022-07-26T15:59:10.268Z,74563.63
2022-07-26T16:01:37.848Z,74598.28
2022-07-26T16:04:05.754Z,74619.47
2022-07-26T16:06:35.914Z,74644.50
2022-07-26T16:09:16.592Z,74659.91
2022-07-26T16:11:50.524Z,74683.03
2022-07-26T16:14:17.563Z,74702.28
2022-07-26T16:16:45.250Z,74690.72
2022-07-26T16:19:12.652Z,74686.88
2022-07-26T16:21:40.555Z,74696.50
2022-07-26T16:24:07.979Z,74683.03
2022-07-26T16:26:35.836Z,74681.09
2022-07-26T16:29:03.458Z,74694.56
2022-07-26T16:31:30.877Z,74690.72
2022-07-26T16:33:57.774Z,74694.56
2022-07-26T16:36:24.494Z,74681.09
2022-07-26T16:38:51.251Z,74688.81
2022-07-26T16:41:18.109Z,74694.56
2022-07-26T16:43:45.302Z,74690.72
2022-07-26T16:46:12.162Z,74706.13
2022-07-26T16:48:38.975Z,74709.97
2022-07-26T16:51:05.852Z,74715.75
2022-07-26T16:53:32.582Z,74727.31
2022-07-26T16:55:59.843Z,74733.09
2022-07-26T16:58:26.664Z,74725.41
2022-07-26T17:00:53.898Z,74708.06
2022-07-26T17:03:20.761Z,74704.22
2022-07-26T17:05:47.692Z,74708.06
2022-07-26T17:08:14.413Z,74690.72
2022-07-26T17:10:41.370Z,74679.16
2022-07-26T17:13:08.243Z,74667.63
2022-07-26T17:15:35.012Z,74667.63
2022-07-26T17:18:02.038Z,74652.22
2022-07-26T17:20:28.782Z,74629.09
2022-07-26T17:22:55.488Z,74629.09
2022-07-26T17:25:22.304Z,74629.09
2022-07-26T17:27:49.133Z,74634.88
2022-07-26T17:30:16.357Z,74663.75
2022-07-26T17:32:43.272Z,74671.47
2022-07-26T17:35:10.207Z,74667.63
2022-07-26T17:37:37.007Z,74694.56
2022-07-26T17:40:07.991Z,74709.97
2022-07-26T17:42:35.498Z,74717.69
2022-07-26T17:45:02.666Z,74729.25
2022-07-26T17:47:30.503Z,74736.94
2022-07-26T17:50:37.804Z,74736.94
2022-07-26T17:52:50.104Z,74736.94
2022-07-26T17:55:19.233Z,74740.81
2022-07-26T17:57:47.898Z,74744.66
2022-07-26T18:00:17.271Z,74756.22
2022-07-26T18:02:44.012Z,74775.47
2022-07-26T18:05:11.434Z,74767.75
2022-07-26T18:07:39.293Z,74775.47
2022-07-26T18:10:06.699Z,74783.16
2022-07-26T18:12:33.456Z,74794.72
2022-07-26T18:15:00.206Z,74794.72
2022-07-26T18:17:27.244Z,74804.34
2022-07-26T18:19:54.022Z,74814.00
2022-07-26T18:22:20.800Z,74840.97
2022-07-26T18:24:47.600Z,74846.72
2022-07-26T18:27:14.359Z,74850.59
2022-07-26T18:29:41.644Z,74848.66
2022-07-26T18:32:08.356Z,74858.28
2022-07-26T18:34:35.084Z,74864.06
2022-07-26T18:37:02.344Z,74871.78
2022-07-26T18:39:30.510Z,74877.56
2022-07-26T18:42:01.165Z,74883.31
2022-07-26T18:44:28.047Z,74883.31
2022-07-26T18:46:56.363Z,74883.31
2022-07-26T18:49:23.693Z,74898.72
2022-07-26T18:52:01.722Z,74898.72
2022-07-26T18:54:32.278Z,74906.44
2022-07-26T18:56:58.969Z,74910.28
2022-07-26T18:59:25.720Z,74914.16
2022-07-26T19:01:52.638Z,74919.91
2022-07-26T19:04:19.481Z,74925.69
2022-07-26T19:06:49.200Z,74931.47
2022-07-26T19:09:16.718Z,74939.19
2022-07-26T19:11:46.377Z,74941.09
2022-07-26T19:14:13.788Z,74941.09
2022-07-26T19:16:40.678Z,74948.81
2022-07-26T19:19:07.485Z,74948.81
2022-07-26T19:21:34.270Z,74954.59
2022-07-26T19:24:01.216Z,74964.22
2022-07-26T19:26:29.110Z,74964.22
2022-07-26T19:28:55.975Z,74971.94
2022-07-26T19:31:22.867Z,74971.94
2022-07-26T19:33:49.988Z,74975.78
2022-07-26T19:36:25.324Z,74975.78
2022-07-26T19:38:55.743Z,74987.34
2022-07-26T19:41:23.034Z,74995.03
2022-07-26T19:43:49.825Z,75022.00
2022-07-26T19:46:16.722Z,75037.41
2022-07-26T19:48:43.578Z,75045.13
2022-07-26T19:51:10.420Z,75052.81
2022-07-26T19:53:37.147Z,75060.53
2022-07-26T19:56:04.596Z,75066.31
2022-07-26T19:58:31.330Z,75075.94
2022-07-26T20:00:58.094Z,75075.94
2022-07-26T20:03:24.959Z,75087.50
2022-07-26T20:05:53.586Z,75091.34
2022-07-26T20:08:20.755Z,75102.91
2022-07-26T20:10:47.557Z,75108.69
2022-07-26T20:13:14.563Z,75108.69
2022-07-26T20:15:41.432Z,75099.06
2022-07-26T20:18:08.228Z,75100.97
2022-07-26T20:20:34.947Z,75106.75
2022-07-26T20:23:03.969Z,75112.53
2022-07-26T20:25:32.124Z,75118.31
2022-07-26T20:27:59.534Z,75118.31
2022-07-26T20:30:26.350Z,75122.16
2022-07-26T20:32:53.225Z,75122.16
2022-07-26T20:35:20.078Z,75129.88
2022-07-26T20:37:46.804Z,75131.81
2022-07-26T20:40:14.143Z,75131.81
2022-07-26T20:42:44.567Z,75126.03
2022-07-26T20:45:13.014Z,75135.66
2022-07-26T20:47:40.682Z,75149.13
2022-07-26T20:50:08.995Z,75149.13
2022-07-26T20:52:35.758Z,75153.00
2022-07-26T20:55:02.649Z,75151.06
2022-07-26T20:57:29.393Z,75170.31
2022-07-26T20:59:56.091Z,75183.81
2022-07-26T21:02:23.072Z,75195.38
2022-07-26T21:04:49.929Z,75195.38
2022-07-26T21:07:16.687Z,75191.50
2022-07-26T21:09:43.460Z,75176.09
2022-07-26T21:12:10.273Z,75164.53
2022-07-26T21:14:37.033Z,75160.69
2022-07-26T21:17:07.915Z,75176.09
2022-07-26T21:19:37.932Z,75168.41
2022-07-26T21:22:04.679Z,75168.41
2022-07-26T21:24:31.414Z,75172.25
2022-07-26T21:26:58.240Z,75179.94
2022-07-26T21:29:25.044Z,75195.38
2022-07-26T21:31:51.769Z,75201.16
2022-07-26T21:34:18.624Z,75210.78
2022-07-26T21:36:45.633Z,75214.63
2022-07-26T21:39:13.340Z,75233.88
2022-07-26T21:41:40.408Z,75245.44
2022-07-26T21:44:07.223Z,75241.59
2022-07-26T21:46:33.957Z,75231.97
2022-07-26T21:49:00.822Z,75233.88
2022-07-26T21:51:27.709Z,75249.31
2022-07-26T21:53:54.518Z,75266.63
2022-07-26T21:56:21.829Z,75262.78
2022-07-26T21:58:48.514Z,75247.38
2022-07-26T22:01:15.371Z,75249.31
2022-07-26T22:03:42.811Z,75247.38
2022-07-26T22:06:10.319Z,75245.44
2022-07-26T22:08:39.028Z,75262.78
2022-07-26T22:11:05.940Z,75245.44
2022-07-26T22:13:32.913Z,75249.31
2022-07-26T22:15:59.701Z,75253.16
2022-07-26T22:18:26.964Z,75251.22
2022-07-26T22:20:54.326Z,75241.59
2022-07-26T22:23:23.137Z,75249.31
2022-07-26T22:25:49.900Z,75249.31
2022-07-26T22:28:18.526Z,75247.38
2022-07-26T22:30:46.128Z,75241.59
2022-07-26T22:33:12.896Z,75243.53
2022-07-26T22:35:39.852Z,75233.88
2022-07-26T22:38:10.894Z,75222.34
2022-07-26T22:40:38.918Z,75214.63
2022-07-26T22:43:06.714Z,75218.47
2022-07-26T22:45:34.001Z,75210.78
2022-07-26T22:48:02.899Z,75206.91
2022-07-26T22:50:29.941Z,75206.91
2022-07-26T22:52:56.976Z,75206.91
2022-07-26T22:55:24.457Z,75214.63
2022-07-26T22:57:51.225Z,75210.78
2022-07-26T23:00:19.627Z,75212.69
2022-07-26T23:02:47.814Z,75216.56
2022-07-26T23:05:15.898Z,75214.63
2022-07-26T23:07:45.402Z,75226.19
2022-07-26T23:10:14.808Z,75233.88
2022-07-26T23:12:41.590Z,75245.44
2022-07-26T23:15:11.119Z,75237.75
2022-07-26T23:17:38.570Z,75253.16
2022-07-26T23:20:07.312Z,75257.00
2022-07-26T23:22:34.871Z,75258.94
2022-07-26T23:25:01.676Z,75257.00
2022-07-26T23:27:28.616Z,75241.59
2022-07-26T23:29:58.164Z,75230.03
2022-07-26T23:32:24.914Z,75228.13
2022-07-26T23:34:51.632Z,75239.66
2022-07-26T23:37:18.911Z,75239.66
2022-07-26T23:39:45.746Z,75253.16
2022-07-26T23:42:12.514Z,75243.53
2022-07-26T23:44:39.174Z,75245.44
2022-07-26T23:47:06.027Z,75251.22
2022-07-26T23:49:32.996Z,75253.16
2022-07-26T23:51:59.788Z,75257.00
2022-07-26T23:54:26.478Z,75257.00
2022-07-26T23:56:53.252Z,75249.31
2022-07-26T23:59:20.162Z,75245.44
